Terminal Aerodrome Forecast
Issued by NWS Nashville, TN

Home | Current Version | Previous Version | Text Only | Print | Product List | Glossary On
Versions: 1 2 3 4 5 6 7 8 9 10 11 12 13 14 15 16 17 18 19 20 21 22
000
FTUS44 KOHX 260300 AAB
TAFBNA
TAF AMD
KBNA 260358Z 2604/2624 32011G16KT P6SM BKN060 OVC080
      TEMPO 2604/2606 5SM -SHRA OVC035
     FM260800 36006KT P6SM BKN010 OVC020
     FM261500 34006KT P6SM OVC015
     FM262200 36005KT P6SM SCT025=

USA.gov is the U.S. government's official web portal to all federal, state and local government web resources and services.